• Join FlightAware (Why Join?)
  • Login
  • US Flag 
03:59AM EDT


 

Airport Tracker/Info


-or-


 

Live Flight TrackerFlight Track Log ✈ EJA705 ✈ 24-Apr-2012 ✈ KTEB - KSFO

Flight Track Log - Related Links

Times and Time Zones

All times are in EDT time to prevent confusion due to time zone crossing. See the EJA705 flight status page for this flight to view local times or setup timezone preferences in your user account.

Time Position Orientation Groundspeed Altitude Reporting Facility
EDT Latitude Longitude Course Direction KTS MPH feet Rate Location/Type
12:36AM 40.8000 -74.0833 311° West 195 224 1,800  Level New York TRACON
12:37AM 40.8333 -74.1333 307° West 197 227 3,300 1,920 Climbing New York TRACON
12:39AM 40.9258 -74.2947 320° Northwest 257 296 8,000 1,740 Climbing New York Center
12:40AM 40.9861 -74.3611 323° Northwest 273 314 8,800 1,200 Climbing New York Center
12:41AM 41.0469 -74.4219 294° West 278 320 10,500 1,800 Climbing New York Center
12:42AM 41.0811 -74.5231 293° West 299 344 12,400 2,280 Climbing New York Center
12:43AM 41.1228 -74.6519 298° West 341 392 15,100 2,400 Climbing New York Center
12:44AM 41.1650 -74.7592 300° West 355 409 17,200 2,400 Climbing New York Center
12:45AM 41.2228 -74.8950 300° West 374 430 19,900 2,520 Climbing New York Center
12:46AM 41.2731 -75.0111 300° West 387 445 22,300 2,220 Climbing New York Center
12:47AM 41.3286 -75.1389 300° West 392 451 24,500 1,740 Climbing New York Center
12:48AM 41.3881 -75.2756 300° West 410 472 25,900 1,380 Climbing New York Center
12:49AM 41.4472 -75.4150 295° West 430 495 27,300 1,380 Climbing New York Center
12:50AM 41.4997 -75.5656 291° West 441 507 28,700 1,320 Climbing New York Center
12:51AM 41.5453 -75.7211 291° West 454 522 30,000 660 Climbing New York Center
12:52AM 41.5906 -75.8800 290° West 459 528 30,000  Level New York Center
12:53AM 41.6356 -76.0444 291° West 459 528 30,000  Level New York Center
12:54AM 41.6822 -76.2064 291° West 459 528 30,000  Level New York Center
12:55AM 41.7289 -76.3686 289° West 459 528 30,100 780 Climbing New York Center
12:56AM 41.7747 -76.5450 277° West 464 534 31,600 1,320 Climbing New York Center
12:57AM 41.7894 -76.7103 277° West 446 513 32,900 1,080 Climbing New York Center
12:58AM 41.8042 -76.8703 278° West 441 507 33,900 540 Climbing New York Center
12:59AM 41.8208 -77.0333 276° West 446 513 34,000  Climbing New York Center
01:02AM 41.8547 -77.4494 277° West 462 532 34,000  Level Cleveland Center
01:03AM 41.8697 -77.6189 276° West 462 532 34,000  Level Cleveland Center
01:04AM 41.8822 -77.7914 276° West 462 532 34,000  Level Cleveland Center
01:05AM 41.8967 -77.9636 276° West 462 532 34,000  Level Cleveland Center
01:06AM 41.9108 -78.1333 275° West 467 537 34,000  Level Cleveland Center
01:07AM 41.9228 -78.3058 275° West 467 537 34,000  Level Cleveland Center
01:08AM 41.9344 -78.4758 277° West 462 532 34,000  Level Cleveland Center
01:09AM 41.9500 -78.6483 275° West 462 532 34,000  Level Cleveland Center
01:10AM 41.9611 -78.8156 275° West 462 532 34,000  Level Cleveland Center
01:11AM 41.9717 -78.9661 276° West 462 532 34,000  Level Cleveland Center
01:12AM 41.9842 -79.1306 275° West 462 532 34,000  Level Cleveland Center
01:13AM 41.9944 -79.2981 276° West 462 532 34,000  Level Cleveland Center
01:14AM 42.0067 -79.4656 276° West 462 532 34,000  Level Cleveland Center
01:15AM 42.0186 -79.6300 274° West 462 532 34,000  Level Cleveland Center
01:16AM 42.0281 -79.7978 276° West 457 526 34,000  Level Cleveland Center
01:17AM 42.0397 -79.9625 274° West 457 526 34,000  Level Cleveland Center
01:18AM 42.0489 -80.1442 275° West 451 519 34,000  Level Cleveland Center
01:19AM 42.0597 -80.3064 274° West 451 519 34,000 300 Level Cleveland Center
01:20AM 42.0683 -80.4714 274° West 445 512 34,600 840 Climbing Cleveland Center
01:21AM 42.0767 -80.6336 274° West 439 505 35,700 660 Climbing Cleveland Center
01:22AM 42.0847 -80.7903 274° West 434 499 36,000 120 Climbing Cleveland Center
01:23AM 42.0928 -80.9358 275° West 434 499 36,000  Level Cleveland Center
01:24AM 42.1025 -81.1008 274° West 443 510 36,000  Level Cleveland Center
01:25AM 42.1122 -81.2717 273° West 449 517 36,000  Level Cleveland Center
01:26AM 42.1194 -81.4369 274° West 449 517 36,000  Level Cleveland Center
01:27AM 42.1283 -81.6050 273° West 449 517 36,000  Level Cleveland Center
01:28AM 42.1350 -81.7731 274° West 460 529 36,000  Level Cleveland Center
01:29AM 42.1436 -81.9442 274° West 460 529 36,000  Level Cleveland Center
01:30AM 42.1519 -82.1125 273° West 460 529 36,000 -60 Level Cleveland Center
01:31AM 42.1578 -82.2944 275° West 455 524 35,900  Descending Cleveland Center
01:32AM 42.1675 -82.4631 273° West 455 524 36,000  Climbing Cleveland Center
01:33AM 42.1731 -82.6283 273° West 450 518 36,000  Level Cleveland Center
01:34AM 42.1783 -82.7911 273° West 442 509 36,000  Level Cleveland Center
01:35AM 42.1856 -82.9594 271° West 442 509 36,000  Level Cleveland Center
01:36AM 42.1883 -83.1222 273° West 442 509 36,000  Level Cleveland Center
01:37AM 42.1950 -83.2878 272° West 442 509 36,000  Level Cleveland Center
01:38AM 42.1994 -83.4478 274° West 442 509 36,000  Level Cleveland Center
01:39AM 42.2078 -83.6081 271° West 442 509 36,000 -60 Level Cleveland Center
01:40AM 42.2094 -83.7764 273° West 437 503 35,900  Descending Cleveland Center
01:41AM 42.2153 -83.9392 273° West 437 503 36,000  Climbing Cleveland Center
01:42AM 42.2256 -84.2203 270° West 414 476 36,000  Level Chicago Center
01:43AM 42.2264 -84.3831 272° West 425 489 36,000  Level Chicago Center
01:44AM 42.2303 -84.5231 272° West 425 489 36,000  Level Chicago Center
01:45AM 42.2347 -84.6797 271° West 420 483 36,000  Level Chicago Center
01:46AM 42.2369 -84.8397 272° West 425 489 36,000  Level Chicago Center
01:47AM 42.2408 -84.9936 271° West 420 483 36,000  Level Chicago Center
01:48AM 42.2425 -85.1533 272° West 420 483 36,000  Level Chicago Center
01:49AM 42.2467 -85.3300 270° West 425 489 36,000  Level Chicago Center
01:50AM 42.2458 -85.4844 272° West 420 483 36,000 420 Level Chicago Center
01:51AM 42.2489 -85.6414 271° West 420 483 36,900 960 Climbing Chicago Center
01:52AM 42.2514 -85.7842 270° West 409 471 38,000 540 Climbing Chicago Center
01:53AM 42.2517 -85.9300 272° West 403 464 38,000  Level Chicago Center
01:54AM 42.2556 -86.0675 270° West 403 464 38,000  Level Chicago Center
01:55AM 42.2556 -86.2161 270° West 403 464 38,000  Level Chicago Center
01:56AM 42.2556 -86.3678 271° West 403 464 38,000  Level Chicago Center
01:57AM 42.2572 -86.5164 271° West 403 464 38,000  Level Chicago Center
01:58AM 42.2589 -86.6706 272° West 403 464 38,000  Level Chicago Center
01:59AM 42.2625 -86.8331 269° West 403 464 38,000  Level Chicago Center
02:00AM 42.2614 -86.9819 271° West 403 464 38,000  Level Chicago Center
02:01AM 42.2625 -87.1361 269° West 409 471 38,000  Level Chicago Center
02:02AM 42.2611 -87.2878 269° West 409 471 38,000  Level Chicago Center
02:03AM 42.2594 -87.4281 270° West 409 471 38,000  Level Chicago Center
02:04AM 42.2597 -87.5825 269° West 414 476 38,000  Level Chicago Center
02:05AM 42.2578 -87.7367 270° West 414 476 38,000  Level Chicago Center
02:06AM 42.2578 -87.8883 270° West 414 476 38,000  Level Chicago Center
02:07AM 42.2575 -88.0453 269° West 419 482 38,000  Level Chicago Center
02:08AM 42.2550 -88.1997 270° West 419 482 38,000  Level Chicago Center
02:09AM 42.2544 -88.3567 269° West 419 482 38,000  Level Chicago Center
02:10AM 42.2517 -88.5111 270° West 419 482 38,000  Level Chicago Center
02:11AM 42.2506 -88.6683 268° West 419 482 38,000  Level Chicago Center
02:12AM 42.2472 -88.8253 267° West 419 482 38,000  Level Chicago Center
02:13AM 42.2414 -88.9769 269° West 411 473 38,000  Level Chicago Center
02:14AM 42.2397 -89.1367 268° West 422 486 38,000  Level Chicago Center
02:15AM 42.2358 -89.2908 269° West 422 486 38,000  Level Chicago Center
02:16AM 42.2336 -89.4508 269° West 422 486 38,000  Level Chicago Center
02:17AM 42.2314 -89.6106 268° West 422 486 38,000  Level Chicago Center
02:18AM 42.2267 -89.7817 268° West 422 486 38,000  Level Chicago Center
02:19AM 42.2219 -89.9275 271° West 422 486 38,000  Level Chicago Center
02:20AM 42.2231 -90.0817 268° West 422 486 38,000  Level Chicago Center
02:21AM 42.2178 -90.2528 267° West 422 486 38,000  Level Chicago Center
02:22AM 42.2122 -90.4094 267° West 422 486 38,000  Level Chicago Center
02:23AM 42.2064 -90.5664 269° West 422 486 38,000  Level Chicago Center
02:24AM 42.2047 -90.7178 268° West 422 486 38,000  Level Chicago Center
02:25AM 42.2008 -90.8719 267° West 417 480 38,000  Level Chicago Center
02:26AM 42.1944 -91.0258 267° West 417 480 38,000  Level Chicago Center
02:27AM 42.1881 -91.1825 267° West 417 480 38,000  Level Chicago Center
02:28AM 42.1811 -91.3392 267° West 417 480 38,000  Level Chicago Center
02:29AM 42.1742 -91.4961 268° West 417 480 38,000  Level Chicago Center
02:30AM 42.1692 -91.6528 266° West 422 486 38,000  Level Chicago Center
02:31AM 42.1617 -91.8094 266° West 422 486 38,000  Level Chicago Center
02:32AM 42.1539 -91.9686 268° West 427 491 38,000  Level Chicago Center
02:33AM 42.1503 -92.1311 265° West 427 491 38,000  Level Chicago Center
02:34AM 42.1400 -92.2875 267° West 427 491 38,000  Level Chicago Center
02:35AM 42.1336 -92.4494 266° West 427 491 38,000  Level Chicago Center
02:36AM 42.1253 -92.6061 266° West 427 491 38,000  Level Chicago Center
02:38AM 42.1103 -92.8939 266° West 428 493 38,000  Level Minneapolis Center
02:39AM 42.1025 -93.0475 265° West 428 493 38,000  Level Minneapolis Center
02:40AM 42.0925 -93.2097 267° West 423 487 38,000  Level Minneapolis Center
02:41AM 42.0867 -93.3689 264° West 423 487 38,000  Level Minneapolis Center
02:42AM 42.0742 -93.5197 267° West 423 487 38,000  Level Minneapolis Center
02:43AM 42.0675 -93.6817 265° West 429 494 38,000  Level Minneapolis Center
02:44AM 42.0567 -93.8381 269° West 429 494 38,000  Level Minneapolis Center
02:45AM 42.0539 -94.0142 265° West 422 486 38,000  Level Minneapolis Center
02:46AM 42.0425 -94.1731 264° West 422 486 38,000  Level Minneapolis Center
02:47AM 42.0308 -94.3319 265° West 427 491 38,000  Level Minneapolis Center
02:48AM 42.0211 -94.4908 265° West 427 491 38,000  Level Minneapolis Center
02:49AM 42.0111 -94.6500 265° West 427 491 38,000  Level Minneapolis Center
02:50AM 42.0008 -94.8114 265° West 427 491 38,000  Level Minneapolis Center
02:51AM 41.9906 -94.9731 265° West 433 498 38,000  Level Minneapolis Center
02:52AM 41.9797 -95.1317 264° West 438 504 38,000  Level Minneapolis Center
02:53AM 41.9667 -95.2958 265° West 443 510 38,000  Level Minneapolis Center
02:54AM 41.9556 -95.4572 264° West 443 510 38,000  Level Minneapolis Center
02:55AM 41.9442 -95.6131 265° West 438 504 38,000  Level Minneapolis Center
02:56AM 41.9328 -95.7714 263° West 438 504 38,000  Level Minneapolis Center
02:57AM 41.9189 -95.9297 264° West 433 498 38,000  Level Minneapolis Center
02:58AM 41.9069 -96.0881 265° West 433 498 38,000  Level Minneapolis Center
02:59AM 41.8969 -96.2325 263° West 438 504 38,000  Level Minneapolis Center
03:00AM 41.8825 -96.3906 264° West 438 504 38,000  Level Minneapolis Center
03:01AM 41.8697 -96.5489 264° West 438 504 38,000  Level Minneapolis Center
03:02AM 41.8569 -96.7069 263° West 438 504 38,000  Level Minneapolis Center
03:03AM 41.8417 -96.8619 264° West 438 504 38,000  Level Minneapolis Center
03:04AM 41.8283 -97.0197 263° West 438 504 38,000  Level Minneapolis Center
03:05AM 41.8147 -97.1778 264° West 438 504 38,000  Level Minneapolis Center
03:06AM 41.8031 -97.3356 262° West 438 504 38,000  Level Minneapolis Center
03:07AM 41.7869 -97.4931 263° West 438 504 38,000  Level Minneapolis Center
03:08AM 41.7728 -97.6478 263° West 433 498 38,000  Level Minneapolis Center
03:09AM 41.7583 -97.8053 263° West 433 498 38,000  Level Minneapolis Center
03:10AM 41.7436 -97.9600 261° West 428 493 38,000  Level Minneapolis Center
03:11AM 41.7244 -98.1169 266° West 428 493 38,000  Level Minneapolis Center
03:12AM 41.7150 -98.2858 262° West 423 487 38,000  Level Minneapolis Center
03:15AM 41.6758 -98.6586 262° West 422 486 38,000  Level Denver Center
03:16AM 41.6594 -98.8192 262° West 432 497 38,000  Level Denver Center
03:17AM 41.6428 -98.9769 262° West 437 503 38,000  Level Denver Center
03:18AM 41.6258 -99.1375 261° West 437 503 38,000  Level Denver Center
03:19AM 41.6083 -99.2922 263° West 432 497 38,000  Level Denver Center
03:20AM 41.5931 -99.4497 261° West 432 497 38,000  Level Denver Center
03:21AM 41.5767 -99.5931 262° West 432 497 38,000  Level Denver Center
03:22AM 41.5575 -99.7647 261° West 432 497 38,000  Level Denver Center
03:23AM 41.5394 -99.9247 261° West 432 497 38,000  Level Denver Center
03:24AM 41.5225 -100.0681 261° West 432 497 38,000  Level Denver Center
03:25AM 41.5039 -100.2225 261° West 432 497 38,000  Level Denver Center
03:26AM 41.4839 -100.3964 261° West 432 497 38,000  Level Denver Center
03:27AM 41.4650 -100.5533 262° West 432 497 38,000  Level Denver Center
03:28AM 41.4492 -100.6961 259° West 432 497 38,000  Level Denver Center
03:29AM 41.4242 -100.8675 262° West 432 497 38,000  Level Denver Center
03:30AM 41.4086 -101.0211 261° West 432 497 38,000  Level Denver Center
03:31AM 41.3903 -101.1667 260° West 437 503 38,000  Level Denver Center
03:32AM 41.3700 -101.3178 260° West 431 496 38,000  Level Denver Center
03:33AM 41.3483 -101.4883 260° West 431 496 38,000  Level Denver Center
03:34AM 41.3278 -101.6419 261° West 431 496 38,000  Level Denver Center
03:35AM 41.3106 -101.7844 261° West 431 496 38,000  Level Denver Center
03:36AM 41.2917 -101.9350 259° West 431 496 38,000  Level Denver Center
03:37AM 41.2669 -102.1053 260° West 431 496 38,000  Level Denver Center
03:38AM 41.2475 -102.2586 260° West 431 496 38,000  Level Denver Center
03:39AM 41.2297 -102.3978 260° West 431 496 38,000  Level Denver Center
03:40AM 41.2083 -102.5647 259° West 431 496 38,000  Level Denver Center
03:41AM 41.1861 -102.7178 258° West 431 496 38,000  Level Denver Center
03:42AM 41.1619 -102.8711 259° West 431 496 38,000  Level Denver Center
03:43AM 41.1394 -103.0211 261° West 431 496 38,000  Level Denver Center
03:44AM 41.1225 -103.1572 260° West 426 490 38,000  Level Denver Center
03:45AM 41.1017 -103.3069 258° West 426 490 38,000  Level Denver Center
03:46AM 41.0747 -103.4736 259° West 421 484 38,000  Level Denver Center
03:47AM 41.0536 -103.6206 258° West 421 484 38,000  Level Denver Center
03:48AM 41.0300 -103.7731 259° West 421 484 38,000  Level Denver Center
03:49AM 41.0103 -103.9086 260° West 421 484 38,000  Level Denver Center
03:50AM 40.9867 -104.0772 261° West 421 484 38,000  Level Denver Center
03:51AM 40.9706 -104.2128 257° West 426 490 38,000  Level Denver Center
03:52AM 40.9464 -104.3564 259° West 421 484 38,000  Level Denver Center
03:53AM 40.9239 -104.5083 258° West 412 474 38,000  Level Denver Center
03:54AM 40.8992 -104.6575 258° West 412 474 38,000  Level Denver Center
03:55AM 40.8764 -104.8036 258° West 412 474 38,000  Level Denver Center
03:56AM 40.8533 -104.9469 259° West 406 467 38,000  Level Denver Center
03:57AM 40.8303 -105.0983 257° West 412 474 38,000  Level Denver Center
03:58AM 40.8028 -105.2525 259° West 406 467 38,000  Level Denver Center
03:59AM 40.7814 -105.3956 257° West 401 461 38,000 60 Level Denver Center
04:00AM 40.7575 -105.5331 257° West 396 456 38,200 540 Climbing Denver Center
04:01AM 40.7336 -105.6731 258° West 391 450 39,100 900 Climbing Denver Center
04:02AM 40.7114 -105.8050 258° West 385 443 40,000 420 Climbing Denver Center
04:03AM 40.6892 -105.9422 257° West 380 437 40,000  Level Denver Center
04:04AM 40.6647 -106.0764 258° West 380 437 40,000  Level Denver Center
04:05AM 40.6442 -106.2053 258° West 366 421 40,000  Level Denver Center
04:06AM 40.6256 -106.3228 258° West 361 415 40,000  Level Denver Center
04:07AM 40.6047 -106.4514 257° West 361 415 40,000  Level Denver Center
04:08AM 40.5797 -106.5992 257° West 367 422 40,100 -420 Climbing Denver Center
04:09AM 40.5586 -106.7192 257° West 365 420 39,200 -900 Descending Denver Center
04:10AM 40.5375 -106.8422 256° West 353 406 38,300 -600 Descending Denver Center
04:11AM 40.5142 -106.9622 257° West 348 400 38,000 -180 Descending Denver Center
04:12AM 40.4928 -107.0850 255° West 348 400 38,000  Level Denver Center
04:13AM 40.4692 -107.2022 257° West 340 391 38,000  Level Denver Center
04:14AM 40.4494 -107.3139 257° West 340 391 38,000  Level Denver Center
04:15AM 40.4278 -107.4364 255° West 346 398 38,000  Level Denver Center
04:16AM 40.4014 -107.5694 258° West 346 398 38,000  Level Denver Center
04:17AM 40.3814 -107.6892 256° West 338 389 38,000  Level Denver Center
04:18AM 40.3617 -107.7950 256° West 338 389 38,000  Level Denver Center
04:19AM 40.3369 -107.9281 256° West 343 395 38,000  Level Denver Center
04:20AM 40.3147 -108.0475 255° West 343 395 38,000  Level Denver Center
04:21AM 40.2900 -108.1694 256° West 343 395 38,000  Level Denver Center
04:22AM 40.2694 -108.2750 257° West 343 395 38,000  Level Denver Center
04:23AM 40.2467 -108.4078 254° West 338 389 38,000  Level Denver Center
04:24AM 40.2214 -108.5267 257° West 338 389 38,000  Level Denver Center
04:25AM 40.2028 -108.6347 255° West 338 389 38,000  Level Denver Center
04:26AM 40.1714 -108.7864 255° West 332 382 38,000  Level Salt Lake Center
04:27AM 40.1492 -108.8969 256° West 331 381 38,000  Level Salt Lake Center
04:28AM 40.1272 -109.0111 256° West 336 387 38,000  Level Salt Lake Center
04:29AM 40.1006 -109.1467 255° West 343 395 38,000  Level Salt Lake Center
04:30AM 40.0772 -109.2611 255° West 343 395 38,000  Level Salt Lake Center
04:31AM 40.0542 -109.3764 255° West 344 396 38,000  Level Salt Lake Center
04:32AM 40.0269 -109.5103 255° West 343 395 38,000  Level Salt Lake Center
04:33AM 40.0031 -109.6244 256° West 342 394 38,000  Level Salt Lake Center
04:34AM 39.9806 -109.7383 255° West 342 394 38,000  Level Salt Lake Center
04:35AM 39.9572 -109.8506 255° West 338 389 38,000  Level Salt Lake Center
04:36AM 39.9306 -109.9794 254° West 333 383 38,000  Level Salt Lake Center
04:37AM 39.9075 -110.0864 255° West 327 376 38,000  Level Salt Lake Center
04:38AM 39.8853 -110.1933 255° West 322 371 38,000  Level Salt Lake Center
04:39AM 39.8589 -110.3178 255° West 320 368 38,000  Level Salt Lake Center
04:40AM 39.8353 -110.4311 254° West 330 380 38,000  Level Salt Lake Center
04:41AM 39.8100 -110.5494 255° West 346 398 38,000  Level Salt Lake Center
04:42AM 39.7856 -110.6683 254° West 353 406 38,000  Level Salt Lake Center
04:43AM 39.7561 -110.8044 255° West 352 405 38,000  Level Salt Lake Center
04:44AM 39.7311 -110.9219 254° West 353 406 38,000  Level Salt Lake Center
04:45AM 39.7064 -111.0347 254° West 344 396 38,000  Level Salt Lake Center
04:46AM 39.6814 -111.1481 254° West 341 392 38,000  Level Salt Lake Center
04:47AM 39.6528 -111.2772 254° West 336 387 38,000  Level Salt Lake Center
04:48AM 39.6272 -111.3956 254° West 338 389 38,000  Level Salt Lake Center
04:49AM 39.6006 -111.5147 254° West 340 391 38,000  Level Salt Lake Center
04:50AM 39.5739 -111.6336 254° West 340 391 38,000  Level Salt Lake Center
04:51AM 39.5472 -111.7508 253° West 338 389 38,000  Level Salt Lake Center
04:52AM 39.5247 -111.8483 254° West 337 388 38,000  Level Salt Lake Center
04:53AM 39.4992 -111.9628 253° West 331 381 38,000  Level Salt Lake Center
04:54AM 39.4728 -112.0767 254° West 328 377 38,000  Level Salt Lake Center
04:55AM 39.4469 -112.1906 253° West 327 376 38,000  Level Salt Lake Center
04:56AM 39.4211 -112.3022 253° West 324 373 38,000  Level Salt Lake Center
04:57AM 39.3944 -112.4147 253° West 324 373 38,000  Level Salt Lake Center
04:58AM 39.3683 -112.5278 253° West 325 374 38,000  Level Salt Lake Center
04:59AM 39.3383 -112.6511 253° West 327 376 38,000  Level Salt Lake Center
05:00AM 39.3164 -112.7419 254° West 327 376 38,000  Level Salt Lake Center
05:01AM 39.2897 -112.8619 253° West 335 386 38,000  Level Salt Lake Center
05:02AM 39.2619 -112.9789 253° West 337 388 38,000  Level Salt Lake Center
05:03AM 39.2342 -113.0947 253° West 335 386 38,000  Level Salt Lake Center
05:04AM 39.2058 -113.2114 252° West 336 387 38,000  Level Salt Lake Center
05:05AM 39.1767 -113.3292 254° West 338 389 38,000  Level Salt Lake Center
05:06AM 39.1492 -113.4494 253° West 342 394 38,000  Level Salt Lake Center
05:07AM 39.1208 -113.5669 252° West 341 392 38,000  Level Salt Lake Center
05:08AM 39.0919 -113.6839 252° West 340 391 38,000  Level Salt Lake Center
05:09AM 39.0625 -113.8036 253° West 343 395 38,000  Level Salt Lake Center
05:10AM 39.0328 -113.9258 252° West 350 403 38,000  Level Salt Lake Center
05:11AM 39.0022 -114.0461 252° West 350 403 38,000  Level Salt Lake Center
05:12AM 38.9711 -114.1692 253° West 354 407 38,000  Level Salt Lake Center
05:13AM 38.9406 -114.2936 252° West 359 413 38,000  Level Salt Lake Center
05:14AM 38.9158 -114.3931 252° West 360 414 38,000  Level Salt Lake Center
05:15AM 38.8850 -114.5169 252° West 360 414 38,000  Level Salt Lake Center
05:16AM 38.8536 -114.6389 252° West 357 411 38,000  Level Salt Lake Center
05:17AM 38.8217 -114.7617 252° West 357 411 38,000  Level Salt Lake Center
05:18AM 38.7906 -114.8839 252° West 357 411 38,000  Level Salt Lake Center
05:19AM 38.7592 -115.0069 251° West 358 412 38,000  Level Salt Lake Center
05:20AM 38.7250 -115.1306 252° West 361 415 38,000  Level Salt Lake Center
05:21AM 38.6928 -115.2539 252° West 362 417 38,000  Level Salt Lake Center
05:22AM 38.6600 -115.3839 251° West 359 413 38,000  Level Salt Lake Center
05:23AM 38.6281 -115.5033 251° West 356 410 38,000  Level Salt Lake Center
05:24AM 38.5961 -115.6231 252° West 355 409 38,000  Level Salt Lake Center
05:25AM 38.5647 -115.7442 251° West 357 411 38,000  Level Salt Lake Center
05:26AM 38.5325 -115.8636 251° West 356 410 38,000  Level Salt Lake Center
05:27AM 38.5003 -115.9831 251° West 356 410 38,000  Level Salt Lake Center
05:28AM 38.4678 -116.1028 251° West 356 410 38,000  Level Salt Lake Center
05:29AM 38.4350 -116.2236 251° West 359 413 38,000  Level Salt Lake Center
05:30AM 38.4025 -116.3433 251° West 358 412 38,000  Level Salt Lake Center
05:31AM 38.3706 -116.4628 251° West 357 411 38,000  Level Salt Lake Center
05:32AM 38.3378 -116.5825 251° West 357 411 38,000  Level Salt Lake Center
05:33AM 38.3050 -116.7008 251° West 355 409 38,000  Level Salt Lake Center
05:34AM 38.2719 -116.8211 257° West 358 412 38,000  Level Salt Lake Center
05:35AM 38.2492 -116.9472 261° West 373 429 38,000  Level Salt Lake Center
05:36AM 38.2331 -117.0742 260° West 368 423 38,000 -540 Level Salt Lake Center
06:04AM 37.6500 -120.8000 262° West 470 541 23,600 -600 Descending Northern Cal TRACON
06:05AM 37.6333 -120.9500 261° West 431 496 21,200 -2,280 Descending Northern Cal TRACON
06:06AM 37.6167 -121.0833 261° West 403 464 19,100 -2,100 Descending Northern Cal TRACON
06:07AM 37.6000 -121.2167 261° West 379 436 17,100 -2,100 Descending Northern Cal TRACON
06:08AM 37.5833 -121.3500 250° West 362 417 15,000 -2,100 Descending Northern Cal TRACON
06:09AM 37.5500 -121.4667 260° West 359 413 12,900 -2,100 Descending Northern Cal TRACON
06:10AM 37.5333 -121.5833 260° West 348 400 10,800 -1,800 Descending Northern Cal TRACON
06:11AM 37.5167 -121.7000 270° West 283 326 9,300 -1,800 Descending Northern Cal TRACON
06:12AM 37.5167 -121.7833 260° West 271 312 7,300 -780 Descending Northern Cal TRACON
06:14AM 37.4833 -122.0167 293° West 254 292 6,700 -600 Descending Northern Cal TRACON
06:16AM 37.5167 -122.1167 302° West 264 304 5,100 -1,680 Descending Northern Cal TRACON
06:17AM 37.5500 -122.1833 293° West 224 258 3,200 -1,500 Descending Northern Cal TRACON
06:18AM 37.5667 -122.2333 293° West 167 192 2,100 -960 Descending Northern Cal TRACON
06:19AM 37.5833 -122.2833 293° West 143 165 1,300 -780 Descending Northern Cal TRACON
06:20AM 37.6000 -122.3333 302° West 140 161 600 -720 Descending Northern Cal TRACON
06:27AM 37.6167 -122.3667 289° West  Level FlightAware Approximate
06:28AM 37.6527 -122.4954 109° East  Level Estimated
06:29AM 37.6167 -122.3667 289° West  Level FlightAware Approximate
06:30AM 37.6527 -122.4954 109° East  Level Estimated
06:31AM 37.6167 -122.3667 289° West  Level FlightAware Approximate
06:32AM 37.6527 -122.4954 109° East  Level Estimated
06:33AM 37.6167 -122.3667 289° West  Level FlightAware Approximate
06:34AM 37.6527 -122.4954 109° East  Level Estimated
06:35AM 37.6167 -122.3667 289° West  Level FlightAware Approximate
06:36AM 37.6527 -122.4954 109° East  Level Estimated
06:37AM 37.6167 -122.3667 289° West  Level FlightAware Approximate
06:38AM 37.6527 -122.4954 289° West  Level Estimated